Time;durP1;ratioP1;P1;durP2;ratioP2;P2;SDS_P1;SDS_P2;PMS_P1;PMS_P2;Temp;Humidity;BMP_temperature;BMP_pressure;BME280_temperature;BME280_humidity;BME280_pressure;Samples;Min_cycle;Max_cycle;Signal;HPM_P1;HPM_P2
2023/05/04 00:02:24;;;;;;;606.73;575.00;;;5.00;99.90;;;;;;6194815;23;20414;-84
2023/05/04 00:04:53;;;;;;;631.60;598.07;;;5.00;99.90;;;;;;6185156;23;20421;-84
2023/05/04 00:07:20;;;;;;;649.83;615.47;;;5.00;99.90;;;;;;6185432;23;20898;-85
2023/05/04 00:09:49;;;;;;;682.70;643.93;;;5.00;99.90;;;;;;6186592;23;20416;-84
2023/05/04 00:12:16;;;;;;;719.87;680.27;;;5.00;99.90;;;;;;6184645;23;20523;-84
2023/05/04 00:14:44;;;;;;;715.77;675.97;;;5.10;99.90;;;;;;6184744;23;20473;-84
2023/05/04 00:17:11;;;;;;;725.07;685.00;;;5.00;99.90;;;;;;6185564;23;20471;-84
2023/05/04 00:19:40;;;;;;;710.00;670.80;;;5.10;99.90;;;;;;6186498;23;20412;-84
2023/05/04 00:22:09;;;;;;;725.40;684.90;;;5.00;99.90;;;;;;6185196;23;20408;-84
2023/05/04 00:24:36;;;;;;;724.00;684.70;;;5.10;99.90;;;;;;6184907;23;20423;-84
2023/05/04 00:27:03;;;;;;;722.10;682.97;;;5.00;99.90;;;;;;6185065;23;20500;-84
2023/05/04 00:29:30;;;;;;;720.30;681.23;;;5.00;99.90;;;;;;6186095;23;20413;-84
2023/05/04 00:31:57;;;;;;;679.30;646.43;;;5.00;99.90;;;;;;6184569;23;20912;-85
2023/05/04 00:34:24;;;;;;;683.77;650.23;;;5.00;99.90;;;;;;6184902;23;20412;-84
2023/05/04 00:36:51;;;;;;;691.07;657.47;;;5.00;99.90;;;;;;6185252;23;20747;-84
2023/05/04 00:39:19;;;;;;;702.40;667.70;;;5.00;99.90;;;;;;6185962;23;20421;-85
2023/05/04 00:41:46;;;;;;;712.80;676.93;;;4.90;99.90;;;;;;6184969;23;20440;-85
2023/05/04 00:44:13;;;;;;;743.60;704.27;;;4.90;99.90;;;;;;6184400;23;20949;-85
2023/05/04 00:46:40;;;;;;;758.60;717.80;;;4.90;99.90;;;;;;6185098;23;20413;-84
2023/05/04 00:49:08;;;;;;;790.40;745.10;;;4.90;99.90;;;;;;6185994;23;20992;-85
2023/05/04 00:51:36;;;;;;;818.47;770.40;;;4.90;99.90;;;;;;6185297;23;20447;-85
2023/05/04 00:54:03;;;;;;;798.20;750.43;;;4.90;99.90;;;;;;6184321;23;20519;-85
2023/05/04 00:56:37;;;;;;;821.43;772.33;;;4.90;99.90;;;;;;6185036;23;20413;-84
2023/05/04 00:59:04;;;;;;;802.53;755.97;;;4.90;99.90;;;;;;6186980;23;20398;-84
2023/05/04 01:01:31;;;;;;;804.90;757.00;;;4.90;99.90;;;;;;6185010;23;20505;-84
2023/05/04 01:03:58;;;;;;;814.87;766.87;;;4.80;99.90;;;;;;6184402;23;20441;-84
2023/05/04 01:06:34;;;;;;;800.40;753.23;;;4.80;99.90;;;;;;6184915;23;20491;-84
2023/05/04 01:09:09;;;;;;;802.57;754.87;;;4.80;99.90;;;;;;6185941;23;20464;-84
2023/05/04 01:11:43;;;;;;;809.50;760.37;;;4.70;99.90;;;;;;6185098;23;20487;-84
2023/05/04 01:14:12;;;;;;;813.27;763.97;;;4.80;99.90;;;;;;6184764;23;20448;-84
2023/05/04 01:16:39;;;;;;;797.83;750.07;;;4.70;99.90;;;;;;6185000;23;20429;-84
2023/05/04 01:19:06;;;;;;;803.67;755.47;;;4.60;99.90;;;;;;6186187;23;20437;-84
2023/05/04 01:21:35;;;;;;;822.03;771.80;;;4.70;99.90;;;;;;6185195;23;20463;-84
2023/05/04 01:24:02;;;;;;;805.97;756.60;;;4.70;99.90;;;;;;6184391;23;20420;-84
2023/05/04 01:26:34;;;;;;;822.60;771.33;;;4.50;99.90;;;;;;6184657;23;20419;-84
2023/05/04 01:29:08;;;;;;;811.23;761.87;;;4.60;99.90;;;;;;6185798;23;20397;-84
2023/05/04 01:31:36;;;;;;;787.80;741.23;;;4.50;99.90;;;;;;6184609;23;20429;-84
2023/05/04 01:34:05;;;;;;;834.80;784.20;;;4.50;99.90;;;;;;6183369;23;20527;-85
2023/05/04 01:36:32;;;;;;;822.40;772.33;;;4.50;99.90;;;;;;6184952;23;20496;-85
2023/05/04 01:39:01;;;;;;;813.10;763.50;;;4.50;99.90;;;;;;6195774;23;20441;-84
2023/05/04 01:41:28;;;;;;;799.73;751.90;;;4.50;99.90;;;;;;6185110;23;20417;-84
2023/05/04 01:43:55;;;;;;;802.03;754.03;;;4.50;99.90;;;;;;6184562;23;20723;-84
2023/05/04 01:46:22;;;;;;;795.77;747.10;;;4.40;99.90;;;;;;6184269;23;20455;-84
2023/05/04 01:48:49;;;;;;;805.30;756.23;;;4.50;99.90;;;;;;6185749;23;20421;-84
2023/05/04 01:51:16;;;;;;;806.63;757.30;;;4.50;99.90;;;;;;6185468;23;20524;-84
2023/05/04 01:53:43;;;;;;;804.10;755.70;;;4.40;99.90;;;;;;6196017;23;20828;-85
2023/05/04 01:56:12;;;;;;;815.83;766.87;;;4.40;99.90;;;;;;6186307;23;20492;-84
2023/05/04 01:58:39;;;;;;;819.40;770.00;;;4.40;99.90;;;;;;6187813;23;20522;-84
2023/05/04 02:01:08;;;;;;;818.67;769.50;;;4.30;99.90;;;;;;6187083;23;20423;-84
2023/05/04 02:03:35;;;;;;;802.93;755.77;;;4.30;99.90;;;;;;6186669;23;20499;-84
2023/05/04 02:06:02;;;;;;;803.70;757.33;;;4.20;99.90;;;;;;6186146;23;20738;-84
2023/05/04 02:08:29;;;;;;;818.63;769.33;;;4.10;99.90;;;;;;6187587;23;20413;-84
2023/05/04 02:10:56;;;;;;;809.93;761.63;;;4.10;99.90;;;;;;6186647;23;20444;-84
2023/05/04 02:13:24;;;;;;;842.33;792.03;;;4.10;99.90;;;;;;6186155;23;20475;-84
2023/05/04 02:15:51;;;;;;;844.10;792.60;;;4.00;99.90;;;;;;6185706;23;20417;-85
2023/05/04 02:18:18;;;;;;;836.43;784.07;;;4.10;99.90;;;;;;6186971;23;20919;-84
2023/05/04 02:20:45;;;;;;;837.77;784.17;;;4.00;99.90;;;;;;6186688;23;20420;-84
2023/05/04 02:23:12;;;;;;;848.67;794.83;;;4.10;99.90;;;;;;6186203;23;20737;-84
2023/05/04 02:25:40;;;;;;;836.90;785.20;;;4.10;99.90;;;;;;6185970;23;20416;-84
2023/05/04 02:28:07;;;;;;;824.97;775.50;;;4.00;99.90;;;;;;6186836;23;20987;-84
2023/05/04 02:30:36;;;;;;;799.37;751.83;;;4.00;99.90;;;;;;6186832;23;20822;-84
2023/05/04 02:33:03;;;;;;;788.70;742.73;;;4.00;99.90;;;;;;6185466;23;20443;-84
2023/05/04 02:35:30;;;;;;;809.20;762.33;;;4.00;99.90;;;;;;6185663;23;20417;-84
2023/05/04 02:37:57;;;;;;;812.53;764.63;;;4.00;99.90;;;;;;6187037;23;20416;-84
2023/05/04 02:40:24;;;;;;;784.40;738.33;;;4.00;99.90;;;;;;6187101;23;20488;-84
2023/05/04 02:42:51;;;;;;;807.10;759.00;;;4.00;99.90;;;;;;6185904;23;20413;-84
2023/05/04 02:45:20;;;;;;;820.23;771.03;;;4.00;99.90;;;;;;6185823;23;20472;-84
2023/05/04 02:47:48;;;;;;;804.13;755.87;;;4.10;99.90;;;;;;6186618;23;20467;-84
2023/05/04 02:50:15;;;;;;;790.33;742.67;;;4.10;99.90;;;;;;6186758;23;20923;-84
2023/05/04 02:52:42;;;;;;;773.47;727.23;;;4.00;99.90;;;;;;6185741;23;20500;-85
2023/05/04 02:55:10;;;;;;;754.70;711.07;;;4.10;99.90;;;;;;6185915;23;20448;-84
2023/05/04 02:57:37;;;;;;;771.80;726.10;;;4.10;99.90;;;;;;6186261;23;20413;-85
2023/05/04 03:00:05;;;;;;;792.57;743.67;;;4.00;99.90;;;;;;6187058;23;20500;-84
2023/05/04 03:02:32;;;;;;;798.43;747.43;;;4.10;99.90;;;;;;6185654;23;20413;-84
2023/05/04 03:05:00;;;;;;;820.23;767.63;;;4.10;99.90;;;;;;6185347;23;20417;-84
2023/05/04 03:07:28;;;;;;;809.67;757.33;;;4.00;99.90;;;;;;6185984;23;20500;-84
2023/05/04 03:09:55;;;;;;;806.83;756.83;;;4.00;99.90;;;;;;6186700;23;20453;-84
2023/05/04 03:12:22;;;;;;;786.37;738.93;;;3.90;99.90;;;;;;6185386;23;20492;-84
2023/05/04 03:14:49;;;;;;;820.43;768.30;;;3.90;99.90;;;;;;6185592;23;20447;-84
2023/05/04 03:17:16;;;;;;;821.30;771.60;;;3.70;99.90;;;;;;6195981;23;20499;-84
2023/05/04 03:19:43;;;;;;;814.77;765.97;;;3.70;99.90;;;;;;6186670;23;20500;-84
2023/05/04 03:22:11;;;;;;;810.30;761.70;;;3.70;99.90;;;;;;6185347;23;20444;-84
2023/05/04 03:24:38;;;;;;;810.87;763.53;;;3.80;99.90;;;;;;6185569;23;20436;-84
2023/05/04 03:27:05;;;;;;;772.67;728.00;;;3.80;99.90;;;;;;6186195;23;20468;-84
2023/05/04 03:29:32;;;;;;;832.67;778.90;;;3.90;99.90;;;;;;6186733;23;20417;-84
2023/05/04 03:31:59;;;;;;;819.83;766.63;;;3.80;99.90;;;;;;6185461;23;21020;-84
2023/05/04 03:34:26;;;;;;;832.03;777.93;;;3.80;99.90;;;;;;6184955;23;20436;-84
2023/05/04 03:36:53;;;;;;;811.70;759.80;;;3.70;99.90;;;;;;6185853;23;20471;-84
2023/05/04 03:39:22;;;;;;;809.53;759.70;;;3.90;99.90;;;;;;6186435;23;20467;-84
2023/05/04 03:41:51;;;;;;;815.80;765.70;;;3.80;99.90;;;;;;6185686;23;20479;-84
2023/05/04 03:44:17;;;;;;;803.37;752.93;;;3.80;99.90;;;;;;6194994;23;20972;-84
2023/05/04 03:46:44;;;;;;;813.37;763.47;;;3.90;99.90;;;;;;6185913;23;20444;-84
2023/05/04 03:49:11;;;;;;;811.37;761.07;;;3.90;99.90;;;;;;6186746;23;20413;-84
2023/05/04 03:51:38;;;;;;;784.13;736.63;;;3.90;99.90;;;;;;6185624;23;20416;-84
2023/05/04 03:54:06;;;;;;;779.10;734.03;;;3.90;99.90;;;;;;6184692;23;20515;-84
2023/05/04 03:56:34;;;;;;;760.77;718.50;;;3.90;99.90;;;;;;6185319;23;20417;-84
2023/05/04 03:59:01;;;;;;;755.20;714.10;;;3.90;99.90;;;;;;6186752;23;20905;-84
2023/05/04 04:01:28;;;;;;;743.43;703.70;;;4.00;99.90;;;;;;6185660;23;20413;-84
2023/05/04 04:03:55;;;;;;;734.67;696.00;;;4.00;99.90;;;;;;6184739;23;20750;-84
2023/05/04 04:06:22;;;;;;;723.90;685.83;;;4.10;99.90;;;;;;6185618;23;20475;-84
2023/05/04 04:08:49;;;;;;;697.80;661.60;;;4.00;99.90;;;;;;6186613;23;20452;-84
2023/05/04 04:11:16;;;;;;;679.37;644.17;;;4.10;99.90;;;;;;6185778;23;20806;-84
2023/05/04 04:13:44;;;;;;;672.73;638.30;;;4.10;99.90;;;;;;6184657;23;20468;-84
2023/05/04 04:16:11;;;;;;;686.53;651.53;;;4.10;99.90;;;;;;6184896;23;20413;-84
2023/05/04 04:18:40;;;;;;;682.83;647.57;;;4.10;99.90;;;;;;6196561;23;20467;-84
2023/05/04 04:21:08;;;;;;;686.03;650.80;;;4.10;99.90;;;;;;6195041;23;20417;-84
2023/05/04 04:23:35;;;;;;;688.03;652.83;;;4.10;99.90;;;;;;6194479;23;20882;-84
2023/05/04 04:26:05;;;;;;;670.67;637.07;;;4.00;99.90;;;;;;6194623;23;20416;-84
2023/05/04 04:28:32;;;;;;;684.83;650.20;;;4.10;99.90;;;;;;6186405;23;20413;-84
2023/05/04 04:31:02;;;;;;;681.33;646.17;;;4.10;99.90;;;;;;6185342;23;20421;-84
2023/05/04 04:33:29;;;;;;;719.10;681.37;;;4.10;99.90;;;;;;6194871;23;20849;-85
2023/05/04 04:35:56;;;;;;;688.37;653.10;;;4.20;99.90;;;;;;6184987;23;20413;-84
2023/05/04 04:38:23;;;;;;;698.33;662.13;;;4.10;99.90;;;;;;6186230;23;20413;-84
2023/05/04 04:40:51;;;;;;;705.87;669.83;;;4.30;99.90;;;;;;6185757;23;20412;-84
2023/05/04 04:43:18;;;;;;;661.50;628.83;;;4.30;99.90;;;;;;6184677;23;20456;-84
2023/05/04 04:45:45;;;;;;;696.67;659.83;;;4.30;99.90;;;;;;6184567;23;20420;-84
2023/05/04 04:48:14;;;;;;;712.33;674.67;;;4.30;99.90;;;;;;6195525;23;20463;-84
2023/05/04 04:50:41;;;;;;;692.40;656.90;;;4.60;99.90;;;;;;6185414;23;20413;-84
2023/05/04 04:53:08;;;;;;;651.80;620.00;;;4.60;99.90;;;;;;6184451;23;20413;-84
2023/05/04 04:55:35;;;;;;;609.87;582.20;;;4.60;99.90;;;;;;6184878;23;20412;-84
2023/05/04 04:58:02;;;;;;;573.43;548.67;;;4.70;99.90;;;;;;6186211;23;20798;-84
2023/05/04 05:00:30;;;;;;;578.93;553.67;;;4.90;99.90;;;;;;6185813;23;20502;-84
2023/05/04 05:02:56;;;;;;;592.20;565.03;;;5.10;99.90;;;;;;6184400;23;20452;-84
2023/05/04 05:05:27;;;;;;;589.80;563.23;;;5.20;99.90;;;;;;6184490;23;20944;-84
2023/05/04 05:07:54;;;;;;;581.67;555.57;;;5.30;99.90;;;;;;6185792;23;20405;-84
2023/05/04 05:10:21;;;;;;;575.47;549.60;;;5.60;99.90;;;;;;6185522;23;20445;-84
2023/05/04 05:12:49;;;;;;;539.80;515.93;;;5.80;99.90;;;;;;6184749;23;20413;-84
2023/05/04 05:15:16;;;;;;;510.90;489.47;;;6.00;99.90;;;;;;6184623;23;20473;-84
2023/05/04 05:17:43;;;;;;;446.73;428.73;;;6.40;99.90;;;;;;6185576;23;20448;-84
2023/05/04 05:20:10;;;;;;;311.73;300.60;;;6.50;99.90;;;;;;6185994;23;20743;-84
2023/05/04 05:22:39;;;;;;;281.97;272.17;;;6.90;99.90;;;;;;6184620;23;20785;-84
2023/05/04 05:25:07;;;;;;;176.93;170.43;;;7.30;99.90;;;;;;6184659;23;20491;-85
2023/05/04 05:27:34;;;;;;;14.23;13.23;;;7.80;99.90;;;;;;6186751;23;20479;-85
2023/05/04 05:30:02;;;;;;;10.50;6.20;;;8.40;99.90;;;;;;6187690;23;20416;-85
2023/05/04 05:32:29;;;;;;;14.30;5.40;;;9.00;99.90;;;;;;6186656;23;20405;-85
2023/05/04 05:34:56;;;;;;;7.77;5.00;;;9.40;99.90;;;;;;6186073;23;20491;-85
2023/05/04 05:37:23;;;;;;;7.33;4.80;;;9.80;99.90;;;;;;6187206;23;20436;-85
2023/05/04 05:39:51;;;;;;;7.93;3.93;;;10.20;99.70;;;;;;6187653;23;20413;-84
2023/05/04 05:42:18;;;;;;;7.50;4.40;;;10.50;97.80;;;;;;6186570;23;20423;-84
2023/05/04 05:44:45;;;;;;;7.57;4.37;;;10.70;97.30;;;;;;6185937;23;20488;-85
2023/05/04 05:47:12;;;;;;;11.57;4.37;;;10.80;97.30;;;;;;6187074;23;20424;-85
2023/05/04 05:49:40;;;;;;;8.87;4.90;;;10.90;95.60;;;;;;6187982;23;20495;-85
2023/05/04 05:52:07;;;;;;;10.60;4.50;;;11.20;95.40;;;;;;6186613;23;20421;-85
2023/05/04 05:54:35;;;;;;;11.40;3.77;;;11.40;93.80;;;;;;6186064;23;20515;-85
2023/05/04 05:57:03;;;;;;;8.70;4.10;;;11.50;93.20;;;;;;6186439;23;20416;-85
2023/05/04 05:59:30;;;;;;;7.53;4.27;;;11.70;91.30;;;;;;6198172;23;20775;-85
2023/05/04 06:01:57;;;;;;;10.40;4.63;;;11.80;90.40;;;;;;6186793;23;20445;-85
2023/05/04 06:04:24;;;;;;;12.60;4.53;;;12.00;90.00;;;;;;6185251;23;20493;-85
2023/05/04 06:06:51;;;;;;;7.70;3.80;;;12.10;87.10;;;;;;6186732;23;20413;-84
2023/05/04 06:09:18;;;;;;;8.00;4.60;;;12.20;86.60;;;;;;6187837;23;20417;-85
2023/05/04 06:11:45;;;;;;;6.73;3.93;;;12.30;86.10;;;;;;6186743;23;20445;-85
2023/05/04 06:14:13;;;;;;;8.00;4.20;;;12.40;84.90;;;;;;6185697;23;20964;-85
2023/05/04 06:16:40;;;;;;;7.13;3.83;;;12.70;82.50;;;;;;6186439;23;20417;-85
2023/05/04 06:19:07;;;;;;;9.93;4.10;;;12.60;80.70;;;;;;6197742;23;20402;-85
2023/05/04 06:21:34;;;;;;;7.20;3.90;;;13.00;79.70;;;;;;6196259;23;20471;-86
2023/05/04 06:24:01;;;;;;;7.57;4.13;;;13.40;80.80;;;;;;6185812;23;20413;-85
2023/05/04 06:26:28;;;;;;;9.13;4.30;;;13.60;80.10;;;;;;6185853;23;20497;-85
2023/05/04 06:28:55;;;;;;;8.10;4.30;;;13.80;77.10;;;;;;6187313;23;20444;-85
2023/05/04 06:31:23;;;;;;;7.17;3.80;;;14.00;75.20;;;;;;6186251;23;20426;-85
2023/05/04 06:33:50;;;;;;;6.73;4.43;;;14.00;72.70;;;;;;6185771;23;20921;-85
2023/05/04 06:36:17;;;;;;;9.57;4.53;;;14.00;71.90;;;;;;6186002;23;20418;-85
2023/05/04 06:38:44;;;;;;;7.93;3.37;;;14.30;73.00;;;;;;6186747;23;21001;-84
2023/05/04 06:41:11;;;;;;;9.13;3.53;;;14.40;73.60;;;;;;6186693;23;20413;-85
2023/05/04 06:43:40;;;;;;;8.00;4.30;;;14.50;70.30;;;;;;6186022;23;20446;-84
2023/05/04 06:46:08;;;;;;;8.47;4.10;;;14.50;68.80;;;;;;6185500;23;20413;-84
2023/05/04 06:48:36;;;;;;;7.70;3.90;;;14.60;69.30;;;;;;6187000;23;20501;-84
2023/05/04 06:51:03;;;;;;;6.63;3.50;;;14.60;67.60;;;;;;6186365;23;20929;-84
2023/05/04 06:53:30;;;;;;;11.73;5.00;;;14.60;65.20;;;;;;6185368;23;20931;-84
2023/05/04 06:55:57;;;;;;;11.27;3.67;;;14.60;67.20;;;;;;6185784;23;20441;-84
2023/05/04 06:58:24;;;;;;;10.17;4.57;;;14.70;65.30;;;;;;6186939;23;20949;-84
2023/05/04 07:00:51;;;;;;;9.03;3.80;;;14.70;65.30;;;;;;6186173;23;20417;-84
2023/05/04 07:03:18;;;;;;;10.23;3.73;;;14.60;63.00;;;;;;6185468;23;20420;-84
2023/05/04 07:05:49;;;;;;;7.13;3.87;;;14.60;61.60;;;;;;6194882;23;20893;-84
2023/05/04 07:08:16;;;;;;;12.30;5.00;;;14.70;61.90;;;;;;6186520;23;20404;-84
2023/05/04 07:10:44;;;;;;;11.40;4.53;;;14.70;62.10;;;;;;6186396;23;20415;-84
2023/05/04 07:13:12;;;;;;;6.83;3.53;;;14.50;58.80;;;;;;6185280;23;20793;-84
2023/05/04 07:15:39;;;;;;;12.50;5.10;;;14.60;62.90;;;;;;6185172;23;20496;-84
2023/05/04 07:18:06;;;;;;;10.13;4.07;;;14.70;60.70;;;;;;6186338;23;20438;-84
2023/05/04 07:20:33;;;;;;;6.83;3.87;;;14.80;58.80;;;;;;6186119;23;20500;-84
2023/05/04 07:23:02;;;;;;;9.23;3.63;;;15.00;60.10;;;;;;6184700;23;20449;-82
2023/05/04 07:25:29;;;;;;;8.43;4.13;;;15.00;59.50;;;;;;6184589;23;20921;-86
2023/05/04 07:27:57;;;;;;;7.50;3.83;;;15.20;60.30;;;;;;6186369;23;20415;-87
2023/05/04 07:30:25;;;;;;;7.97;4.10;;;15.30;58.60;;;;;;6186623;23;20427;-87
2023/05/04 07:32:52;;;;;;;9.17;4.20;;;15.40;57.60;;;;;;6185429;23;20452;-86
2023/05/04 07:35:19;;;;;;;6.93;3.70;;;15.60;56.50;;;;;;6184960;23;20521;-88
2023/05/04 07:37:46;;;;;;;9.00;3.80;;;15.70;56.10;;;;;;6186391;23;20805;-86
2023/05/04 07:40:15;;;;;;;12.40;4.80;;;15.70;53.50;;;;;;6186800;23;20430;-87
2023/05/04 07:42:41;;;;;;;7.90;4.10;;;15.80;50.80;;;;;;6185022;23;20417;-87
2023/05/04 07:45:09;;;;;;;6.13;3.00;;;15.80;51.80;;;;;;6185242;23;20411;-87
2023/05/04 07:47:37;;;;;;;8.50;3.33;;;15.80;50.60;;;;;;6186076;23;20914;-86
2023/05/04 07:50:04;;;;;;;7.53;3.87;;;16.20;54.90;;;;;;6196532;23;20442;-86
2023/05/04 07:52:31;;;;;;;13.03;3.67;;;16.30;49.80;;;;;;6185434;23;20420;-88
2023/05/04 07:54:58;;;;;;;7.93;3.70;;;16.30;46.90;;;;;;6185197;23;20444;-86
2023/05/04 07:57:27;;;;;;;11.53;3.70;;;16.40;46.30;;;;;;6195632;23;20412;-86
2023/05/04 07:59:54;;;;;;;12.07;3.70;;;16.40;47.10;;;;;;6196770;23;20466;-87
2023/05/04 08:02:22;;;;;;;9.50;3.43;;;16.60;45.60;;;;;;6185345;23;20421;-87
2023/05/04 08:04:49;;;;;;;9.27;3.83;;;16.90;45.10;;;;;;6194670;23;20405;-87
2023/05/04 08:07:16;;;;;;;12.27;3.70;;;17.20;42.70;;;;;;6185590;23;20481;-85
2023/05/04 08:09:43;;;;;;;7.83;3.63;;;17.10;41.70;;;;;;6186645;23;20418;-85
2023/05/04 08:12:11;;;;;;;9.03;4.50;;;17.50;40.30;;;;;;6184851;23;20419;-85
2023/05/04 08:14:39;;;;;;;9.43;3.47;;;17.60;39.10;;;;;;6184598;23;20493;-84
2023/05/04 08:17:06;;;;;;;8.17;3.20;;;18.20;39.40;;;;;;6195331;23;20749;-84
2023/05/04 08:19:34;;;;;;;7.90;4.00;;;18.50;33.90;;;;;;6186167;23;20455;-83
2023/05/04 08:22:01;;;;;;;7.80;3.60;;;18.70;34.10;;;;;;6184743;23;20425;-83
2023/05/04 08:24:29;;;;;;;9.63;3.63;;;18.70;34.10;;;;;;6184540;23;20426;-84
2023/05/04 08:26:56;;;;;;;9.87;3.93;;;18.80;34.20;;;;;;6195188;23;20809;-83
2023/05/04 08:29:23;;;;;;;9.23;4.30;;;19.00;29.50;;;;;;6187364;23;20767;-84
2023/05/04 08:31:52;;;;;;;8.83;4.30;;;19.10;29.30;;;;;;6184973;23;20518;-83
2023/05/04 08:34:18;;;;;;;7.93;4.20;;;19.20;29.30;;;;;;6195117;23;20412;-85
2023/05/04 08:36:46;;;;;;;8.93;3.53;;;19.60;28.10;;;;;;6184875;23;20409;-86
2023/05/04 08:39:13;;;;;;;8.93;3.50;;;19.60;31.40;;;;;;6186328;23;20470;-86
2023/05/04 08:41:40;;;;;;;9.70;3.63;;;19.90;31.30;;;;;;6185223;23;20511;-87
2023/05/04 08:44:10;;;;;;;8.10;3.60;;;20.30;28.40;;;;;;6184583;23;20427;-87
2023/05/04 08:46:39;;;;;;;7.90;3.67;;;20.40;26.00;;;;;;6185252;23;20440;-85
2023/05/04 08:49:09;;;;;;;9.73;3.50;;;20.50;25.80;;;;;;6186571;23;20415;-86
2023/05/04 08:51:36;;;;;;;8.53;4.10;;;20.60;25.40;;;;;;6185304;23;20940;-85
2023/05/04 08:54:08;;;;;;;11.90;4.73;;;20.80;23.00;;;;;;6184257;23;20891;-84
2023/05/04 08:56:37;;;;;;;8.53;4.27;;;21.20;24.20;;;;;;6184885;23;20463;-84
2023/05/04 08:59:04;;;;;;;5.80;3.50;;;21.40;20.70;;;;;;6195973;23;20413;-84
2023/05/04 09:01:33;;;;;;;9.30;4.47;;;21.40;21.10;;;;;;6184591;23;20420;-84
2023/05/04 09:04:02;;;;;;;12.37;5.20;;;20.90;21.40;;;;;;6186629;23;20426;-84
2023/05/04 09:06:31;;;;;;;8.93;4.60;;;21.50;20.80;;;;;;6186656;23;20415;-84
2023/05/04 09:08:58;;;;;;;9.37;4.50;;;22.00;20.60;;;;;;6188329;23;20421;-84
2023/05/04 09:11:25;;;;;;;7.13;4.20;;;21.80;21.00;;;;;;6187381;23;20502;-84
2023/05/04 09:13:52;;;;;;;9.00;4.53;;;21.80;18.70;;;;;;6186784;23;20418;-84
2023/05/04 09:16:19;;;;;;;8.00;4.70;;;21.50;20.30;;;;;;6186420;23;20438;-84
2023/05/04 09:18:46;;;;;;;8.93;4.00;;;21.70;21.60;;;;;;6188233;23;20422;-84
2023/05/04 09:21:13;;;;;;;7.67;4.37;;;21.80;21.00;;;;;;6187391;23;20414;-84
2023/05/04 09:23:49;;;;;;;10.60;5.00;;;22.10;20.00;;;;;;6186614;23;20462;-84
2023/05/04 09:26:27;;;;;;;9.10;5.00;;;22.20;19.10;;;;;;6186480;23;20411;-84
2023/05/04 09:28:54;;;;;;;8.37;4.27;;;22.20;15.20;;;;;;6188186;23;20422;-84
2023/05/04 09:31:22;;;;;;;7.90;4.33;;;22.60;16.00;;;;;;6196749;23;20944;-84
2023/05/04 09:33:49;;;;;;;11.30;4.40;;;22.30;16.10;;;;;;6186502;23;20530;-86
2023/05/04 09:36:17;;;;;;;9.50;5.47;;;22.60;16.40;;;;;;6196101;23;20516;-86
2023/05/04 09:38:45;;;;;;;12.80;4.83;;;23.10;14.50;;;;;;6188004;23;20421;-85
2023/05/04 09:41:13;;;;;;;9.73;4.90;;;23.10;14.50;;;;;;6187591;23;20416;-87
2023/05/04 09:43:41;;;;;;;12.00;5.13;;;23.50;13.30;;;;;;6186166;23;20416;-87
2023/05/04 09:46:16;;;;;;;8.83;4.03;;;23.70;13.90;;;;;;6196228;23;20644;-86
2023/05/04 09:48:51;;;;;;;9.00;4.90;;;24.00;12.30;;;;;;6187694;23;20403;-86
2023/05/04 09:51:20;;;;;;;7.87;4.77;;;24.00;8.40;;;;;;6187209;23;20430;-85
2023/05/04 09:53:49;;;;;;;9.90;5.30;;;24.10;10.40;;;;;;6186592;23;20391;-86
2023/05/04 09:56:26;;;;;;;8.43;3.90;;;23.80;11.30;;;;;;6186315;23;20441;-86
2023/05/04 09:58:57;;;;;;;10.90;4.23;;;24.10;11.50;;;;;;6187962;23;20404;-85
2023/05/04 10:01:27;;;;;;;9.27;4.20;;;24.20;6.30;;;;;;6186826;23;20410;-86
2023/05/04 10:03:54;;;;;;;12.13;5.20;;;24.70;7.90;;;;;;6186397;23;20409;-86
2023/05/04 10:06:21;;;;;;;7.50;4.23;;;24.60;5.20;;;;;;6186100;23;20423;-85
2023/05/04 10:08:49;;;;;;;7.83;4.00;;;24.60;4.40;;;;;;6187776;23;20760;-85
2023/05/04 10:11:19;;;;;;;15.80;5.20;;;24.30;2.20;;;;;;6186461;23;20421;-87
2023/05/04 10:13:47;;;;;;;10.43;3.87;;;24.50;7.80;;;;;;6185847;23;20413;-86
2023/05/04 10:16:27;;;;;;;7.80;4.53;;;24.40;7.60;;;;;;6185567;23;20948;-86
2023/05/04 10:19:18;;;;;;;8.60;4.23;;;24.40;3.90;;;;;;6188687;23;20400;-84
2023/05/04 10:21:56;;;;;;;9.13;5.00;;;24.30;5.40;;;;;;6186177;23;20394;-84
2023/05/04 10:24:50;;;;;;;7.87;4.33;;;24.30;1.90;;;;;;6185745;23;20432;-83
2023/05/04 10:27:35;;;;;;;10.03;5.10;;;24.30;4.10;;;;;;6186945;23;20421;-82
2023/05/04 10:30:02;;;;;;;8.80;5.50;;;24.50;2.40;;;;;;6186915;23;20401;-82
2023/05/04 10:32:29;;;;;;;8.53;5.00;;;24.40;1.40;;;;;;6185730;23;20406;-83
2023/05/04 10:35:05;;;;;;;7.90;5.10;;;24.70;1.00;;;;;;6185971;23;20451;-83
2023/05/04 10:37:32;;;;;;;8.87;5.10;;;24.60;1.60;;;;;;6186821;23;20400;-83
2023/05/04 10:39:59;;;;;;;11.13;5.20;;;24.90;1.00;;;;;;6187034;23;20449;-83
2023/05/04 10:42:27;;;;;;;10.40;5.30;;;25.00;1.00;;;;;;6185500;23;20413;-83
2023/05/04 10:44:56;;;;;;;7.17;4.47;;;25.50;1.00;;;;;;6185449;23;20500;-83
2023/05/04 10:47:31;;;;;;;9.67;3.90;;;25.90;1.00;;;;;;6186254;23;20463;-83
2023/05/04 10:50:03;;;;;;;9.27;4.47;;;26.50;1.00;;;;;;6186951;23;20896;-82
2023/05/04 10:52:31;;;;;;;10.67;4.30;;;26.30;1.00;;;;;;6185744;23;20483;-83
2023/05/04 10:55:02;;;;;;;8.13;4.20;;;26.50;1.00;;;;;;6195315;23;20447;-83
2023/05/04 10:57:31;;;;;;;8.83;4.60;;;26.60;1.00;;;;;;6186412;23;20413;-83
2023/05/04 10:59:58;;;;;;;8.87;3.97;;;26.90;1.00;;;;;;6187305;23;20463;-83
2023/05/04 11:02:27;;;;;;;9.70;5.03;;;27.20;1.00;;;;;;6185969;23;20435;-83
2023/05/04 11:05:05;;;;;;;7.10;3.87;;;26.70;1.00;;;;;;6185740;23;20416;-83
2023/05/04 11:07:34;;;;;;;7.73;3.50;;;26.60;1.00;;;;;;6186575;23;20393;-83
2023/05/04 11:10:02;;;;;;;10.73;3.77;;;26.60;1.00;;;;;;6187175;23;20444;-83
2023/05/04 11:12:31;;;;;;;6.43;3.73;;;27.30;1.00;;;;;;6185658;23;20907;-83
2023/05/04 11:15:05;;;;;;;7.97;4.20;;;27.50;1.00;;;;;;6185676;23;20409;-83
2023/05/04 11:17:32;;;;;;;8.13;4.00;;;27.70;1.00;;;;;;6186275;23;20464;-83
2023/05/04 11:19:59;;;;;;;7.70;3.73;;;28.20;1.00;;;;;;6196717;23;20408;-82
2023/05/04 11:22:27;;;;;;;6.87;3.53;;;28.20;1.00;;;;;;6185469;23;20419;-83
2023/05/04 11:24:53;;;;;;;7.13;3.57;;;29.10;1.00;;;;;;6185198;23;20520;-83
2023/05/04 11:27:22;;;;;;;6.00;3.27;;;29.70;1.00;;;;;;6185908;23;20491;-83
2023/05/04 11:29:58;;;;;;;7.00;3.13;;;29.40;1.00;;;;;;6186700;23;20482;-83
2023/05/04 11:32:35;;;;;;;7.40;2.97;;;29.10;1.00;;;;;;6185208;23;20401;-83
2023/05/04 11:35:02;;;;;;;8.80;3.50;;;29.30;1.00;;;;;;6185439;23;20412;-83
2023/05/04 11:37:30;;;;;;;6.47;3.63;;;29.10;1.00;;;;;;6186115;23;20496;-82
2023/05/04 11:39:57;;;;;;;5.90;2.50;;;29.20;1.00;;;;;;6187144;23;20781;-82
2023/05/04 11:42:24;;;;;;;8.90;3.37;;;29.40;1.00;;;;;;6194956;23;20412;-83
2023/05/04 11:44:52;;;;;;;8.20;3.30;;;29.40;1.00;;;;;;6184907;23;20412;-83
2023/05/04 11:47:20;;;;;;;9.33;3.47;;;29.50;1.00;;;;;;6185633;23;20483;-82
2023/05/04 11:49:48;;;;;;;8.77;3.40;;;28.90;1.00;;;;;;6186406;23;20413;-83
2023/05/04 11:52:15;;;;;;;6.20;3.20;;;28.90;1.00;;;;;;6185707;23;20416;-86
2023/05/04 11:54:41;;;;;;;8.57;3.50;;;28.80;1.00;;;;;;6184936;23;20412;-84
2023/05/04 11:57:09;;;;;;;12.30;4.17;;;28.20;1.00;;;;;;6185656;23;20413;-84
2023/05/04 11:59:35;;;;;;;8.03;3.90;;;28.00;1.00;;;;;;6188072;23;20473;-85
2023/05/04 12:02:02;;;;;;;10.57;3.73;;;28.20;1.00;;;;;;6185226;23;20507;-86
2023/05/04 12:04:34;;;;;;;6.53;3.57;;;28.70;1.00;;;;;;6185053;23;20897;-86
2023/05/04 12:07:07;;;;;;;12.40;3.40;;;29.20;1.00;;;;;;6185396;23;20441;-86
2023/05/04 12:09:44;;;;;;;7.80;2.63;;;29.20;1.00;;;;;;6196949;23;20392;-86
2023/05/04 12:12:11;;;;;;;5.60;2.60;;;29.70;1.00;;;;;;6185371;23;20480;-86
2023/05/04 12:14:47;;;;;;;8.50;3.00;;;30.30;1.00;;;;;;6185302;23;20463;-86
2023/05/04 12:17:14;;;;;;;7.53;3.60;;;30.20;1.00;;;;;;6186346;23;20425;-86
2023/05/04 12:19:52;;;;;;;6.80;3.13;;;30.30;1.00;;;;;;6196737;23;20953;-86
2023/05/04 12:22:27;;;;;;;7.03;3.13;;;30.20;1.00;;;;;;6195283;23;20451;-85
2023/05/04 12:24:54;;;;;;;5.63;3.00;;;30.10;1.00;;;;;;6185140;23;20434;-86
2023/05/04 12:27:21;;;;;;;9.73;3.10;;;30.40;1.00;;;;;;6195594;23;20774;-86
2023/05/04 12:29:48;;;;;;;6.13;2.70;;;29.80;1.00;;;;;;6186488;23;20920;-87
2023/05/04 12:32:15;;;;;;;7.10;3.30;;;29.60;1.00;;;;;;6194994;23;20423;-86
2023/05/04 12:34:42;;;;;;;7.73;3.57;;;29.60;1.00;;;;;;6185490;23;20775;-85
2023/05/04 12:37:11;;;;;;;9.70;2.63;;;30.30;1.00;;;;;;6195465;23;20436;-86
2023/05/04 12:39:38;;;;;;;6.80;3.20;;;30.30;1.00;;;;;;6186306;23;20394;-85
2023/05/04 12:42:05;;;;;;;6.30;3.40;;;30.60;1.00;;;;;;6194849;23;20500;-86